createdAt,value
2019-02-12T00:00:40.219Z,66.77
2019-02-12T00:01:20.862Z,66.58
2019-02-12T00:02:01.458Z,66.86
2019-02-12T00:02:42.076Z,66.77
2019-02-12T00:03:22.670Z,66
2019-02-12T00:04:03.318Z,66.39
2019-02-12T00:04:43.954Z,66.39
2019-02-12T00:05:24.546Z,66.1
2019-02-12T00:06:05.276Z,66.19
2019-02-12T00:06:45.883Z,65.62
2019-02-12T00:07:26.490Z,66.1
2019-02-12T00:08:07.116Z,66.1
2019-02-12T00:08:47.802Z,66.19
2019-02-12T00:09:28.451Z,66.39
2019-02-12T00:10:09.050Z,66.1
2019-02-12T00:10:49.660Z,66.19
2019-02-12T00:11:30.289Z,66
2019-02-12T00:12:10.872Z,66.19
2019-02-12T00:12:51.466Z,66
2019-02-12T00:13:32.106Z,66.29
2019-02-12T00:14:12.740Z,66.1
2019-02-12T00:14:53.369Z,66.29
2019-02-12T00:15:33.977Z,66.29
2019-02-12T00:16:14.589Z,66.29
2019-02-12T00:16:55.170Z,66.49
2019-02-12T00:17:35.773Z,66.19
2019-02-12T00:18:16.366Z,66.45
2019-02-12T00:18:56.948Z,66.26
2019-02-12T00:19:37.598Z,66.55
2019-02-12T00:20:18.194Z,66.29
2019-02-12T00:20:58.804Z,66.45
2019-02-12T00:21:39.407Z,66.29
2019-02-12T00:22:20.016Z,66.26
2019-02-12T00:23:00.612Z,65.68
2019-02-12T00:23:41.240Z,65.72
2019-02-12T00:24:21.838Z,66.06
2019-02-12T00:25:02.424Z,65.78
2019-02-12T00:25:43.014Z,65.97
2019-02-12T00:26:23.644Z,66.19
2019-02-12T00:27:04.255Z,65.88
2019-02-12T00:27:44.866Z,65.72
2019-02-12T00:28:25.442Z,66.06
2019-02-12T00:29:06.040Z,66.19
2019-02-12T00:29:46.626Z,66.06
2019-02-12T00:30:27.236Z,66.16
2019-02-12T00:31:07.836Z,65.52
2019-02-12T00:31:48.426Z,65.68
2019-02-12T00:32:29.036Z,65.59
2019-02-12T00:33:09.634Z,66.1
2019-02-12T00:33:50.250Z,65.78
2019-02-12T00:34:30.833Z,65.97
2019-02-12T00:35:11.484Z,65.72
2019-02-12T00:35:52.080Z,65.88
2019-02-12T00:36:32.678Z,65.72
2019-02-12T00:37:13.274Z,65.78
2019-02-12T00:37:53.863Z,65.78
2019-02-12T00:38:34.444Z,65.78
2019-02-12T00:39:15.052Z,65.97
2019-02-12T00:39:55.658Z,65.81
2019-02-12T00:40:36.254Z,66.06
2019-02-12T00:41:16.958Z,65.88
2019-02-12T00:41:57.553Z,65.78
2019-02-12T00:42:38.158Z,65.97
2019-02-12T00:43:18.750Z,65.78
2019-02-12T00:43:59.372Z,65.49
2019-02-12T00:44:39.966Z,65.59
2019-02-12T00:45:20.566Z,65.68
2019-02-12T00:46:01.156Z,65.59
2019-02-12T00:46:41.780Z,65.52
2019-02-12T00:47:22.396Z,65.97
2019-02-12T00:48:02.986Z,65.68
2019-02-12T00:48:43.608Z,65.72
2019-02-12T00:49:24.200Z,65.78
2019-02-12T00:50:04.785Z,66.06
2019-02-12T00:50:45.372Z,65.59
2019-02-12T00:51:25.968Z,65.78
2019-02-12T00:52:06.556Z,65.68
2019-02-12T00:52:47.147Z,65.49
2019-02-12T00:53:27.736Z,65.2
2019-02-12T00:54:08.342Z,65.39
2019-02-12T00:54:48.946Z,65.2
2019-02-12T00:55:29.587Z,65.11
2019-02-12T00:56:10.182Z,64.92
2019-02-12T00:56:50.766Z,65.01
2019-02-12T00:57:31.352Z,65.49
2019-02-12T00:58:11.948Z,65.49
2019-02-12T00:58:52.580Z,65.11
2019-02-12T00:59:33.154Z,65.2
2019-02-12T01:00:13.730Z,65.11
2019-02-12T01:00:54.328Z,65.11
2019-02-12T01:01:34.928Z,65.49
2019-02-12T01:02:15.558Z,65.3
2019-02-12T01:02:56.172Z,65.49
2019-02-12T01:03:36.780Z,65.05
2019-02-12T01:04:17.378Z,65.3
2019-02-12T01:04:57.977Z,65.43
2019-02-12T01:05:38.570Z,64.92
2019-02-12T01:06:19.171Z,64.63
2019-02-12T01:06:59.786Z,64.82
2019-02-12T01:07:40.386Z,65.3
2019-02-12T01:08:20.976Z,64.63
2019-02-12T01:09:01.576Z,64.72
2019-02-12T01:09:42.208Z,65.2
2019-02-12T01:10:22.836Z,65.11
2019-02-12T01:11:03.448Z,65.2
2019-02-12T01:11:44.032Z,65.39
2019-02-12T01:12:24.670Z,65.3
2019-02-12T01:13:05.299Z,65.49
2019-02-12T01:13:45.895Z,65.33
2019-02-12T01:14:26.488Z,64.63
2019-02-12T01:15:07.086Z,65.39
2019-02-12T01:15:47.738Z,65.01
2019-02-12T01:16:28.334Z,64.72
2019-02-12T01:17:08.942Z,64.63
2019-02-12T01:17:49.532Z,64.92
2019-02-12T01:18:30.118Z,64.82
2019-02-12T01:19:10.705Z,64.92
2019-02-12T01:19:51.298Z,65.3
2019-02-12T01:20:31.897Z,64.63
2019-02-12T01:21:12.492Z,65.01
2019-02-12T01:21:53.076Z,65.49
2019-02-12T01:22:33.656Z,65.11
2019-02-12T01:23:14.238Z,65.3
2019-02-12T01:23:54.840Z,65.2
2019-02-12T01:24:35.443Z,64.43
2019-02-12T01:25:16.058Z,65.01
2019-02-12T01:25:56.652Z,64.92
2019-02-12T01:26:37.256Z,65.11
2019-02-12T01:27:17.836Z,65.11
2019-02-12T01:27:58.437Z,65.01
2019-02-12T01:28:39.021Z,64.34
2019-02-12T01:29:19.652Z,65.01
2019-02-12T01:30:00.248Z,65.49
2019-02-12T01:30:40.854Z,64.72
2019-02-12T01:31:21.469Z,65.01
2019-02-12T01:32:02.090Z,65.01
2019-02-12T01:32:42.687Z,65.11
2019-02-12T01:33:23.264Z,65.39
2019-02-12T01:34:03.854Z,65.11
2019-02-12T01:34:44.474Z,65.3
2019-02-12T01:35:25.063Z,65.2
2019-02-12T01:36:05.677Z,65.39
2019-02-12T01:36:46.259Z,64.63
2019-02-12T01:37:26.850Z,64.72
2019-02-12T01:38:07.446Z,64.63
2019-02-12T01:38:48.036Z,64.43
2019-02-12T01:39:28.637Z,64.34
2019-02-12T01:40:09.225Z,64.43
2019-02-12T01:40:49.820Z,64.34
2019-02-12T01:41:30.411Z,65.3
2019-02-12T01:42:11.039Z,64.43
2019-02-12T01:42:51.637Z,64.05
2019-02-12T01:43:32.239Z,64.05
2019-02-12T01:44:12.835Z,64.63
2019-02-12T01:44:53.533Z,64.53
2019-02-12T01:45:34.218Z,64.43
2019-02-12T01:46:14.788Z,64.05
2019-02-12T01:46:55.450Z,64.53
2019-02-12T01:47:36.051Z,64.34
2019-02-12T01:48:16.658Z,64.25
2019-02-12T01:48:57.280Z,64.63
2019-02-12T01:49:37.904Z,64.43
2019-02-12T01:50:18.504Z,64.43
2019-02-12T01:50:59.122Z,64.63
2019-02-12T01:51:39.759Z,64.43
2019-02-12T01:52:20.389Z,64.43
2019-02-12T01:53:01.007Z,64.43
2019-02-12T01:53:41.588Z,63.96
2019-02-12T01:54:22.198Z,64.53
2019-02-12T01:55:02.887Z,64.43
2019-02-12T01:55:43.541Z,64.34
2019-02-12T01:56:24.167Z,64.53
2019-02-12T01:57:04.763Z,64.43
2019-02-12T01:57:45.359Z,64.05
2019-02-12T01:58:26.752Z,63.96
2019-02-12T01:59:07.343Z,64.15
2019-02-12T01:59:47.946Z,63.96
2019-02-12T02:00:28.568Z,64.25
2019-02-12T02:01:09.164Z,64.53
2019-02-12T02:01:49.767Z,64.25
2019-02-12T02:02:30.362Z,64.34
2019-02-12T02:03:10.969Z,64.53
2019-02-12T02:03:51.592Z,63.86
2019-02-12T02:04:32.209Z,63.76
2019-02-12T02:05:12.826Z,64.05
2019-02-12T02:05:53.424Z,63.76
2019-02-12T02:06:34.020Z,63.67
2019-02-12T02:07:14.849Z,64.63
2019-02-12T02:07:55.505Z,64.43
2019-02-12T02:08:36.111Z,63.96
2019-02-12T02:09:16.764Z,64.43
2019-02-12T02:09:57.393Z,63.96
2019-02-12T02:10:39.111Z,63.96
2019-02-12T02:11:18.666Z,63.76
2019-02-12T02:11:59.256Z,64.15
2019-02-12T02:12:39.922Z,63.76
2019-02-12T02:13:20.484Z,63.86
2019-02-12T02:14:01.127Z,63.67
2019-02-12T02:14:41.747Z,63.96
2019-02-12T02:15:22.355Z,63.57
2019-02-12T02:16:02.944Z,63.48
2019-02-12T02:16:43.548Z,63.57
2019-02-12T02:17:24.168Z,63.67
2019-02-12T02:18:04.767Z,63.96
2019-02-12T02:18:45.350Z,64.05
2019-02-12T02:19:26.013Z,63.86
2019-02-12T02:20:06.607Z,63.96
2019-02-12T02:20:47.271Z,64.05
2019-02-12T02:21:27.958Z,63.76
2019-02-12T02:22:08.585Z,63.48
2019-02-12T02:22:49.178Z,63.48
2019-02-12T02:23:29.794Z,63.38
2019-02-12T02:24:10.399Z,63.29
2019-02-12T02:24:51.000Z,63.38
2019-02-12T02:25:31.691Z,63.86
2019-02-12T02:26:12.409Z,64.15
2019-02-12T02:26:53.041Z,63.86
2019-02-12T02:27:33.640Z,63.76
2019-02-12T02:28:14.440Z,64.25
2019-02-12T02:28:55.031Z,64.25
2019-02-12T02:29:35.675Z,63.86
2019-02-12T02:30:16.291Z,63.67
2019-02-12T02:30:56.899Z,63.57
2019-02-12T02:31:37.608Z,63.38
2019-02-12T02:32:18.253Z,63.19
2019-02-12T02:32:58.910Z,63.76
2019-02-12T02:33:39.551Z,63.48
2019-02-12T02:34:20.223Z,63.38
2019-02-12T02:35:00.859Z,63.19
2019-02-12T02:35:41.526Z,63.38
2019-02-12T02:36:22.133Z,63.67
2019-02-12T02:37:02.747Z,63.76
2019-02-12T02:37:43.367Z,63.76
2019-02-12T02:38:24.018Z,63.76
2019-02-12T02:39:04.713Z,63.38
2019-02-12T02:39:45.312Z,63.48
2019-02-12T02:40:25.919Z,63.29
2019-02-12T02:41:06.529Z,63.57
2019-02-12T02:41:47.154Z,63.67
2019-02-12T02:42:27.793Z,63.38
2019-02-12T02:43:08.391Z,63.48
2019-02-12T02:43:48.994Z,63.29
2019-02-12T02:44:29.583Z,63.48
2019-02-12T02:45:10.165Z,63.76
2019-02-12T02:45:50.756Z,63.48
2019-02-12T02:46:31.356Z,63.38
2019-02-12T02:47:11.953Z,63.19
2019-02-12T02:47:52.549Z,63.76
2019-02-12T02:48:33.159Z,63.48
2019-02-12T02:49:13.751Z,63.57
2019-02-12T02:49:54.346Z,63.57
2019-02-12T02:50:34.931Z,63.48
2019-02-12T02:51:15.538Z,63.19
2019-02-12T02:51:56.135Z,63.48
2019-02-12T02:52:36.737Z,63.48
2019-02-12T02:53:17.374Z,63.38
2019-02-12T02:53:57.982Z,63.38
2019-02-12T02:54:38.578Z,63.19
2019-02-12T02:55:19.184Z,63.19
2019-02-12T02:55:59.776Z,63.48
2019-02-12T02:56:40.380Z,63.38
2019-02-12T02:57:21.172Z,63.67
2019-02-12T02:58:01.708Z,63.48
2019-02-12T02:58:42.289Z,63.29
2019-02-12T02:59:22.888Z,63.38
2019-02-12T03:00:03.482Z,63.57
2019-02-12T03:00:44.090Z,63.09
2019-02-12T03:01:24.714Z,62.9
2019-02-12T03:02:05.313Z,63.19
2019-02-12T03:02:45.914Z,62.9
2019-02-12T03:03:26.503Z,62.71
2019-02-12T03:04:07.115Z,63.09
2019-02-12T03:04:47.727Z,63.48
2019-02-12T03:05:28.353Z,63.19
2019-02-12T03:06:08.957Z,63.19
2019-02-12T03:06:49.558Z,63.09
2019-02-12T03:07:30.155Z,63.29
2019-02-12T03:08:10.772Z,63.19
2019-02-12T03:08:51.374Z,62.71
2019-02-12T03:09:31.967Z,63.38
2019-02-12T03:10:12.563Z,62.9
2019-02-12T03:10:53.169Z,63
2019-02-12T03:11:33.779Z,62.9
2019-02-12T03:12:14.358Z,63.09
2019-02-12T03:12:54.945Z,62.9
2019-02-12T03:13:35.577Z,62.9
2019-02-12T03:14:16.159Z,63.19
2019-02-12T03:14:56.745Z,63.09
2019-02-12T03:15:37.336Z,63.48
2019-02-12T03:16:17.927Z,63.38
2019-02-12T03:16:58.531Z,63.09
2019-02-12T03:17:39.159Z,62.62
2019-02-12T03:18:19.749Z,63.09
2019-02-12T03:19:00.358Z,63
2019-02-12T03:19:40.950Z,62.81
2019-02-12T03:20:21.541Z,62.71
2019-02-12T03:21:02.143Z,63.09
2019-02-12T03:21:42.737Z,63.09
2019-02-12T03:22:23.323Z,63.38
2019-02-12T03:23:03.923Z,63.09
2019-02-12T03:23:44.515Z,62.9
2019-02-12T03:24:25.104Z,63.38
2019-02-12T03:25:05.713Z,63.19
2019-02-12T03:25:46.304Z,63.29
2019-02-12T03:26:26.900Z,63.09
2019-02-12T03:27:07.505Z,62.81
2019-02-12T03:27:48.098Z,63.38
2019-02-12T03:28:28.716Z,63.38
2019-02-12T03:29:09.321Z,63.38
2019-02-12T03:29:49.913Z,63.38
2019-02-12T03:30:30.510Z,63
2019-02-12T03:31:11.108Z,63.38
2019-02-12T03:31:51.705Z,62.81
2019-02-12T03:32:32.303Z,62.9
2019-02-12T03:33:12.921Z,62.9
2019-02-12T03:33:53.526Z,62.9
2019-02-12T03:34:34.110Z,63.09
2019-02-12T03:35:14.721Z,63.09
2019-02-12T03:35:55.331Z,62.9
2019-02-12T03:36:35.927Z,62.81
2019-02-12T03:37:16.511Z,62.9
2019-02-12T03:37:57.102Z,63.38
2019-02-12T03:38:37.741Z,63.09
2019-02-12T03:39:18.367Z,62.9
2019-02-12T03:39:58.966Z,63
2019-02-12T03:40:39.581Z,63
2019-02-12T03:41:20.209Z,63.19
2019-02-12T03:42:00.803Z,62.9
2019-02-12T03:42:41.406Z,62.81
2019-02-12T03:43:22.009Z,62.9
2019-02-12T03:44:02.593Z,63.19
2019-02-12T03:44:43.191Z,63
2019-02-12T03:45:23.791Z,62.62
2019-02-12T03:46:04.406Z,62.71
2019-02-12T03:46:44.997Z,62.42
2019-02-12T03:47:25.609Z,62.42
2019-02-12T03:48:06.206Z,62.23
2019-02-12T03:48:46.800Z,62.52
2019-02-12T03:49:27.413Z,62.52
2019-02-12T03:50:08.009Z,62.42
2019-02-12T03:50:48.612Z,62.23
2019-02-12T03:51:29.242Z,62.62
2019-02-12T03:52:12.791Z,62.42
2019-02-12T03:52:50.426Z,62.42
2019-02-12T03:53:31.051Z,62.42
2019-02-12T03:54:11.655Z,62.52
2019-02-12T03:54:52.263Z,62.42
2019-02-12T03:55:32.855Z,62.42
2019-02-12T03:56:13.445Z,62.9
2019-02-12T03:56:54.047Z,62.52
2019-02-12T03:57:34.657Z,62.23
2019-02-12T03:58:15.254Z,61.75
2019-02-12T03:58:55.855Z,62.42
2019-02-12T03:59:36.449Z,62.52
2019-02-12T04:00:17.088Z,62.23
2019-02-12T04:00:57.665Z,62.33
2019-02-12T04:01:38.283Z,62.33
2019-02-12T04:02:18.882Z,62.23
2019-02-12T04:02:59.473Z,61.85
2019-02-12T04:03:40.059Z,62.23
2019-02-12T04:04:20.741Z,62.04
2019-02-12T04:05:01.516Z,62.13
2019-02-12T04:05:41.962Z,62.04
2019-02-12T04:06:22.542Z,62.23
2019-02-12T04:07:03.139Z,62.23
2019-02-12T04:07:43.789Z,61.94
2019-02-12T04:08:24.373Z,61.75
2019-02-12T04:09:04.987Z,62.23
2019-02-12T04:09:45.582Z,62.42
2019-02-12T04:10:26.206Z,62.33
2019-02-12T04:11:06.790Z,62.04
2019-02-12T04:11:47.391Z,62.13
2019-02-12T04:12:28.001Z,61.85
2019-02-12T04:13:08.603Z,62.13
2019-02-12T04:13:49.196Z,61.85
2019-02-12T04:14:29.806Z,62.23
2019-02-12T04:15:10.401Z,62.04
2019-02-12T04:15:51.024Z,62.04
2019-02-12T04:16:31.608Z,62.01
2019-02-12T04:17:12.191Z,61.94
2019-02-12T04:17:52.827Z,61.85
2019-02-12T04:18:33.427Z,62.13
2019-02-12T04:19:14.015Z,62.13
2019-02-12T04:19:54.629Z,62.13
2019-02-12T04:20:35.269Z,62.13
2019-02-12T04:21:15.855Z,61.85
2019-02-12T04:21:56.440Z,61.85
2019-02-12T04:22:37.038Z,62.13
2019-02-12T04:23:17.625Z,62.04
2019-02-12T04:23:58.247Z,61.94
2019-02-12T04:24:38.848Z,61.75
2019-02-12T04:25:19.440Z,61.27
2019-02-12T04:26:00.059Z,62.04
2019-02-12T04:26:40.654Z,62.33
2019-02-12T04:27:21.253Z,62.33
2019-02-12T04:28:01.851Z,61.66
2019-02-12T04:28:42.453Z,61.85
2019-02-12T04:29:23.051Z,61.75
2019-02-12T04:31:23.313Z,61.85
2019-02-12T04:32:03.906Z,61.56
2019-02-12T04:32:44.535Z,61.75
2019-02-12T04:33:25.091Z,61.56
2019-02-12T04:34:05.674Z,61.75
2019-02-12T04:34:46.278Z,61.85
2019-02-12T04:35:26.871Z,61.66
2019-02-12T04:36:07.467Z,61.63
2019-02-12T04:36:48.054Z,61.24
2019-02-12T04:37:28.733Z,61.56
2019-02-12T04:38:09.330Z,61.72
2019-02-12T04:38:49.925Z,61.75
2019-02-12T04:39:30.514Z,61.66
2019-02-12T04:40:11.096Z,61.82
2019-02-12T04:40:51.712Z,61.66
2019-02-12T04:41:32.296Z,62.42
2019-02-12T04:42:12.909Z,62.01
2019-02-12T04:42:53.488Z,61.85
2019-02-12T04:43:34.090Z,61.94
2019-02-12T04:44:14.693Z,62.01
2019-02-12T04:44:55.321Z,61.34
2019-02-12T04:45:35.914Z,61.56
2019-02-12T04:46:16.502Z,61.46
2019-02-12T04:46:57.089Z,62.04
2019-02-12T04:47:37.679Z,61.46
2019-02-12T04:48:18.290Z,61.75
2019-02-12T04:48:58.877Z,62.01
2019-02-12T04:49:39.497Z,61.63
2019-02-12T04:50:20.089Z,61.56
2019-02-12T04:51:00.675Z,61.24
2019-02-12T04:51:41.258Z,61.85
2019-02-12T04:52:21.849Z,62.13
2019-02-12T04:53:02.459Z,62.04
2019-02-12T04:53:43.031Z,61.53
2019-02-12T04:54:23.632Z,61.24
2019-02-12T04:55:06.068Z,61.66
2019-02-12T04:55:44.835Z,60.96
2019-02-12T04:56:25.424Z,61.82
2019-02-12T04:57:06.021Z,61.53
2019-02-12T04:57:46.605Z,61.91
2019-02-12T04:58:27.201Z,61.91
2019-02-12T04:59:07.787Z,61.94
2019-02-12T04:59:48.411Z,61.72
2019-02-12T05:00:29.034Z,61.91
2019-02-12T05:01:09.635Z,60.99
2019-02-12T05:01:50.239Z,61.34
2019-02-12T05:02:30.835Z,61.24
2019-02-12T05:03:11.425Z,61.53
2019-02-12T05:03:52.014Z,61.27
2019-02-12T05:04:32.629Z,61.34
2019-02-12T05:05:13.221Z,61.43
2019-02-12T05:05:53.851Z,61.37
2019-02-12T05:06:34.447Z,61.37
2019-02-12T05:07:15.051Z,61.37
2019-02-12T05:07:55.640Z,61.34
2019-02-12T05:08:36.239Z,61.08
2019-02-12T05:09:16.819Z,61.27
2019-02-12T05:09:57.418Z,61.24
2019-02-12T05:10:38.008Z,61.24
2019-02-12T05:11:18.607Z,60.76
2019-02-12T05:11:59.218Z,61.27
2019-02-12T05:12:39.823Z,61.24
2019-02-12T05:13:20.427Z,60.79
2019-02-12T05:14:01.018Z,61.08
2019-02-12T05:14:41.603Z,61.43
2019-02-12T05:15:22.193Z,61.43
2019-02-12T05:16:02.777Z,61.27
2019-02-12T05:16:43.351Z,61.66
2019-02-12T05:17:23.942Z,61.24
2019-02-12T05:18:04.526Z,61.15
2019-02-12T05:18:45.141Z,61.27
2019-02-12T05:19:25.765Z,61.27
2019-02-12T05:20:06.427Z,61.37
2019-02-12T05:20:46.954Z,60.86
2019-02-12T05:21:27.551Z,61.43
2019-02-12T05:22:08.147Z,61.66
2019-02-12T05:22:48.749Z,61.18
2019-02-12T05:23:29.337Z,61.53
2019-02-12T05:24:09.951Z,61.27
2019-02-12T05:24:50.533Z,61.15
2019-02-12T05:25:31.123Z,60.99
2019-02-12T05:26:11.709Z,60.96
2019-02-12T05:26:52.300Z,61.34
2019-02-12T05:27:32.938Z,61.53
2019-02-12T05:28:13.541Z,61.24
2019-02-12T05:28:54.162Z,61.66
2019-02-12T05:29:34.749Z,61.34
2019-02-12T05:30:15.328Z,61.08
2019-02-12T05:30:55.941Z,61.34
2019-02-12T05:31:36.542Z,61.18
2019-02-12T05:32:17.133Z,60.86
2019-02-12T05:32:57.728Z,61.18
2019-02-12T05:33:38.359Z,61.05
2019-02-12T05:34:19.015Z,60.57
2019-02-12T05:34:59.609Z,60.76
2019-02-12T05:35:40.199Z,60.76
2019-02-12T05:36:20.797Z,60.57
2019-02-12T05:37:01.412Z,60.38
2019-02-12T05:37:42.005Z,60.47
2019-02-12T05:38:22.605Z,60.76
2019-02-12T05:39:03.211Z,60.76
2019-02-12T05:39:43.806Z,60.57
2019-02-12T05:40:24.403Z,60.57
2019-02-12T05:41:05.011Z,60.67
2019-02-12T05:41:45.593Z,60.67
2019-02-12T05:42:26.175Z,60.47
2019-02-12T05:43:06.767Z,60.38
2019-02-12T05:43:47.363Z,60.38
2019-02-12T05:44:27.958Z,60.28
2019-02-12T05:45:08.560Z,60.76
2019-02-12T05:45:49.147Z,60.57
2019-02-12T05:46:29.741Z,60.47
2019-02-12T05:47:10.347Z,60.76
2019-02-12T05:47:50.933Z,60.28
2019-02-12T05:48:31.536Z,60.67
2019-02-12T05:49:12.136Z,60.67
2019-02-12T05:49:52.747Z,60.67
2019-02-12T05:50:33.335Z,60.67
2019-02-12T05:51:13.978Z,60.86
2019-02-12T05:51:54.572Z,60.67
2019-02-12T05:52:35.175Z,60.76
2019-02-12T05:53:15.782Z,60.38
2019-02-12T05:53:56.377Z,60.57
2019-02-12T05:54:36.980Z,60.67
2019-02-12T05:55:17.573Z,60.47
2019-02-12T05:55:58.196Z,60.67
2019-02-12T05:56:38.801Z,60.67
2019-02-12T05:57:19.455Z,60.67
2019-02-12T05:58:00.080Z,60.67
2019-02-12T05:58:40.666Z,60.38
2019-02-12T05:59:21.280Z,60.86
2019-02-12T06:00:01.910Z,60.28
2019-02-12T06:00:42.499Z,60.67
2019-02-12T06:01:23.107Z,60.57
2019-02-12T06:02:03.683Z,60.86
2019-02-12T06:02:44.287Z,60.47
2019-02-12T06:03:24.873Z,60.09
2019-02-12T06:04:05.469Z,60.28
2019-02-12T06:04:46.076Z,60.47
2019-02-12T06:05:26.664Z,60.57
2019-02-12T06:06:07.270Z,60.38
2019-02-12T06:06:47.875Z,60.38
2019-02-12T06:07:28.515Z,60.28
2019-02-12T06:08:09.150Z,60.76
2019-02-12T06:08:49.737Z,60.67
2019-02-12T06:09:30.345Z,60.47
2019-02-12T06:10:10.962Z,60.38
2019-02-12T06:10:52.467Z,60.76
2019-02-12T06:11:33.067Z,60.76
2019-02-12T06:12:13.666Z,60.57
2019-02-12T06:12:54.258Z,59.9
2019-02-12T06:13:34.871Z,60.57
2019-02-12T06:14:15.471Z,60.67
2019-02-12T06:14:56.077Z,60.28
2019-02-12T06:15:36.686Z,60.28
2019-02-12T06:16:17.310Z,60.38
2019-02-12T06:16:57.895Z,60.28
2019-02-12T06:17:38.531Z,60.19
2019-02-12T06:18:19.128Z,60.19
2019-02-12T06:18:59.737Z,60.47
2019-02-12T06:19:40.341Z,60.57
2019-02-12T06:20:20.955Z,60.76
2019-02-12T06:21:01.527Z,60.57
2019-02-12T06:21:42.165Z,60.38
2019-02-12T06:22:22.774Z,60.19
2019-02-12T06:23:04.279Z,60.09
2019-02-12T06:23:43.981Z,60.28
2019-02-12T06:24:24.597Z,60.47
2019-02-12T06:25:07.750Z,60.19
2019-02-12T06:25:45.810Z,60.57
2019-02-12T06:26:26.409Z,60.28
2019-02-12T06:27:07.001Z,60.38
2019-02-12T06:27:47.608Z,60.57
2019-02-12T06:28:28.201Z,60.57
2019-02-12T06:29:08.817Z,60.19
2019-02-12T06:29:49.411Z,60.19
2019-02-12T06:30:30.012Z,59.9
2019-02-12T06:31:10.615Z,60.09
2019-02-12T06:31:51.269Z,60.38
2019-02-12T06:32:31.885Z,60.38
2019-02-12T06:33:12.469Z,59.71
2019-02-12T06:33:53.084Z,60.38
2019-02-12T06:34:33.681Z,60
2019-02-12T06:35:14.304Z,59.52
2019-02-12T06:35:55.005Z,60
2019-02-12T06:36:35.658Z,60.57
2019-02-12T06:37:16.255Z,60.19
2019-02-12T06:37:56.862Z,60.57
2019-02-12T06:38:37.439Z,60.38
2019-02-12T06:39:18.034Z,60.19
2019-02-12T06:39:58.627Z,60.38
2019-02-12T06:40:39.228Z,59.8
2019-02-12T06:41:19.823Z,60.28
2019-02-12T06:42:00.409Z,60.19
2019-02-12T06:42:41.017Z,60
2019-02-12T06:43:21.625Z,59.61
2019-02-12T06:44:02.263Z,59.71
2019-02-12T06:44:42.855Z,60.57
2019-02-12T06:45:23.460Z,60.28
2019-02-12T06:46:04.055Z,60.38
2019-02-12T06:46:44.662Z,60.57
2019-02-12T06:47:25.301Z,60
2019-02-12T06:48:05.911Z,59.42
2019-02-12T06:48:46.525Z,59.8
2019-02-12T06:49:27.117Z,60
2019-02-12T06:50:07.711Z,59.71
2019-02-12T06:50:48.301Z,59.71
2019-02-12T06:51:28.922Z,59.71
2019-02-12T06:52:09.516Z,59.71
2019-02-12T06:52:50.102Z,59.9
2019-02-12T06:53:30.681Z,60
2019-02-12T06:54:11.278Z,59.61
2019-02-12T06:54:51.881Z,59.71
2019-02-12T06:55:32.476Z,59.52
2019-02-12T06:56:13.053Z,59.71
2019-02-12T06:56:53.641Z,59.61
2019-02-12T06:57:34.235Z,59.61
2019-02-12T06:58:14.838Z,59.9
2019-02-12T06:58:55.449Z,59.9
2019-02-12T06:59:36.052Z,59.61
2019-02-12T07:00:16.646Z,59.42
2019-02-12T07:00:57.238Z,59.71
2019-02-12T07:01:37.817Z,59.61
2019-02-12T07:02:18.390Z,60
2019-02-12T07:02:58.981Z,60.09
2019-02-12T07:03:39.567Z,59.71
2019-02-12T07:04:20.151Z,59.61
2019-02-12T07:05:00.747Z,59.61
2019-02-12T07:05:41.344Z,59.9
2019-02-12T07:06:21.947Z,59.61
2019-02-12T07:07:02.547Z,59.71
2019-02-12T07:07:43.129Z,59.52
2019-02-12T07:08:23.732Z,60.09
2019-02-12T07:09:04.321Z,59.9
2019-02-12T07:09:44.916Z,59.42
2019-02-12T07:10:25.521Z,59.9
2019-02-12T07:11:06.117Z,59.71
2019-02-12T07:11:46.709Z,59.23
2019-02-12T07:12:27.328Z,59.33
2019-02-12T07:13:07.921Z,59.61
2019-02-12T07:13:48.553Z,59.61
2019-02-12T07:14:29.225Z,59.33
2019-02-12T07:15:09.851Z,59.9
2019-02-12T07:15:50.419Z,59.04
2019-02-12T07:16:31.051Z,59.61
2019-02-12T07:17:11.647Z,59.33
2019-02-12T07:17:52.249Z,59.33
2019-02-12T07:18:32.843Z,59.42
2019-02-12T07:19:13.439Z,60
2019-02-12T07:19:54.047Z,59.71
2019-02-12T07:20:34.653Z,59.42
2019-02-12T07:21:15.260Z,59.9
2019-02-12T07:21:55.891Z,59.04
2019-02-12T07:22:36.455Z,59.52
2019-02-12T07:23:21.284Z,59.23
2019-02-12T07:23:57.659Z,59.52
2019-02-12T07:24:38.255Z,59.52
2019-02-12T07:25:18.887Z,59.33
2019-02-12T07:25:59.487Z,59.52
2019-02-12T07:26:40.094Z,59.52
2019-02-12T07:27:20.682Z,59.13
2019-02-12T07:28:01.283Z,59.33
2019-02-12T07:28:41.887Z,59.52
2019-02-12T07:29:22.481Z,59.23
2019-02-12T07:30:03.079Z,59.52
2019-02-12T07:30:43.679Z,59.42
2019-02-12T07:31:24.285Z,59.23
2019-02-12T07:32:04.922Z,59.23
2019-02-12T07:32:45.529Z,58.75
2019-02-12T07:33:26.145Z,59.04
2019-02-12T07:34:06.750Z,59.42
2019-02-12T07:34:47.343Z,59.42
2019-02-12T07:35:28.006Z,59.52
2019-02-12T07:36:08.591Z,59.52
2019-02-12T07:36:49.184Z,59.42
2019-02-12T07:37:29.836Z,59.04
2019-02-12T07:38:10.439Z,59.42
2019-02-12T07:38:51.084Z,59.52
2019-02-12T07:39:31.727Z,59.23
2019-02-12T07:40:12.322Z,59.13
2019-02-12T07:40:52.930Z,59.33
2019-02-12T07:41:33.533Z,59.13
2019-02-12T07:42:14.138Z,59.33
2019-02-12T07:42:54.734Z,58.65
2019-02-12T07:43:35.323Z,58.94
2019-02-12T07:44:15.927Z,59.23
2019-02-12T07:44:56.539Z,59.13
2019-02-12T07:45:37.143Z,58.84
2019-02-12T07:46:17.739Z,59.42
2019-02-12T07:46:58.377Z,59.33
2019-02-12T07:47:38.953Z,59.23
2019-02-12T07:48:19.551Z,59.23
2019-02-12T07:49:00.207Z,59.23
2019-02-12T07:49:40.772Z,59.23
2019-02-12T07:50:21.397Z,59.04
2019-02-12T07:51:01.992Z,58.84
2019-02-12T07:51:42.567Z,59.04
2019-02-12T07:52:23.181Z,59.23
2019-02-12T07:53:03.783Z,59.04
2019-02-12T07:53:44.381Z,58.94
2019-02-12T07:54:25.030Z,59.13
2019-02-12T07:55:05.614Z,59.13
2019-02-12T07:55:46.192Z,59.13
2019-02-12T07:56:26.782Z,58.94
2019-02-12T07:57:07.393Z,59.04
2019-02-12T07:57:47.988Z,59.04
2019-02-12T07:58:28.572Z,59.13
2019-02-12T07:59:09.168Z,59.13
2019-02-12T07:59:49.751Z,59.13
2019-02-12T08:00:30.348Z,59.13
2019-02-12T08:01:10.957Z,58.84
2019-02-12T08:01:51.565Z,58.84
2019-02-12T08:02:33.738Z,59.23
2019-02-12T08:03:12.781Z,59.52
2019-02-12T08:03:53.365Z,59.23
2019-02-12T08:04:33.970Z,59.23
2019-02-12T08:05:14.579Z,59.52
2019-02-12T08:05:55.186Z,59.13
2019-02-12T08:06:35.777Z,59.04
2019-02-12T08:07:16.401Z,59.61
2019-02-12T08:07:57.008Z,59.13
2019-02-12T08:08:37.635Z,59.23
2019-02-12T08:09:18.212Z,59.42
2019-02-12T08:09:58.814Z,58.84
2019-02-12T08:10:39.400Z,59.04
2019-02-12T08:11:20.051Z,59.42
2019-02-12T08:12:00.893Z,59.04
2019-02-12T08:12:41.611Z,58.75
2019-02-12T08:13:22.240Z,59.33
2019-02-12T08:14:02.845Z,58.75
2019-02-12T08:14:43.437Z,58.75
2019-02-12T08:15:24.035Z,59.33
2019-02-12T08:16:04.632Z,59.04
2019-02-12T08:16:45.218Z,59.23
2019-02-12T08:17:25.828Z,59.23
2019-02-12T08:18:06.439Z,59.04
2019-02-12T08:18:47.029Z,58.84
2019-02-12T08:19:27.639Z,58.94
2019-02-12T08:20:08.234Z,58.94
2019-02-12T08:20:48.916Z,58.94
2019-02-12T08:21:29.526Z,58.84
2019-02-12T08:22:10.135Z,58.84
2019-02-12T08:22:50.745Z,58.75
2019-02-12T08:23:40.850Z,58.84
2019-02-12T08:24:11.931Z,58.75
2019-02-12T08:24:52.543Z,58.87
2019-02-12T08:25:33.143Z,58.84
2019-02-12T08:26:13.739Z,58.78
2019-02-12T08:26:54.351Z,58.94
2019-02-12T08:27:34.947Z,58.97
2019-02-12T08:28:15.562Z,58.97
2019-02-12T08:28:56.149Z,58.84
2019-02-12T08:29:36.777Z,59.06
2019-02-12T08:30:17.391Z,58.78
2019-02-12T08:30:57.990Z,58.84
2019-02-12T08:31:38.600Z,58.87
2019-02-12T08:32:19.205Z,58.75
2019-02-12T08:32:59.825Z,58.78
2019-02-12T08:33:40.421Z,58.84
2019-02-12T08:34:21.036Z,58.78
2019-02-12T08:35:01.627Z,58.87
2019-02-12T08:35:42.224Z,58.97
2019-02-12T08:36:22.829Z,58.87
2019-02-12T08:37:03.525Z,58.69
2019-02-12T08:37:44.135Z,58.87
2019-02-12T08:38:24.740Z,58.75
2019-02-12T08:39:05.340Z,58.84
2019-02-12T08:39:45.963Z,58.84
2019-02-12T08:40:26.631Z,58.87
2019-02-12T08:41:07.237Z,58.87
2019-02-12T08:41:47.850Z,58.87
2019-02-12T08:42:28.443Z,58.75
2019-02-12T08:43:09.044Z,58.75
2019-02-12T08:43:49.674Z,58.69
2019-02-12T08:44:30.317Z,58.84
2019-02-12T08:45:10.908Z,58.84
2019-02-12T08:45:51.493Z,58.94
2019-02-12T08:46:32.105Z,59.33